sensor_id;sensor_type;location;lat;lon;timestamp;P1;durP1;ratioP1;P2;durP2;ratioP2
43710;SDS011;29309;42.682;23.372;2023-02-17T00:00:16;46.72;;;19.52;;
43710;SDS011;29309;42.682;23.372;2023-02-17T00:02:42;44.00;;;19.35;;
43710;SDS011;29309;42.682;23.372;2023-02-17T00:05:07;44.47;;;19.80;;
43710;SDS011;29309;42.682;23.372;2023-02-17T00:07:32;45.42;;;18.85;;
43710;SDS011;29309;42.682;23.372;2023-02-17T00:09:58;53.38;;;18.60;;
43710;SDS011;29309;42.682;23.372;2023-02-17T00:12:24;40.05;;;18.40;;
43710;SDS011;29309;42.682;23.372;2023-02-17T00:14:49;43.28;;;18.85;;
43710;SDS011;29309;42.682;23.372;2023-02-17T00:17:15;42.08;;;17.15;;
43710;SDS011;29309;42.682;23.372;2023-02-17T00:19:40;41.97;;;15.95;;
43710;SDS011;29309;42.682;23.372;2023-02-17T00:22:06;43.13;;;15.70;;
43710;SDS011;29309;42.682;23.372;2023-02-17T00:24:32;36.85;;;15.70;;
43710;SDS011;29309;42.682;23.372;2023-02-17T00:27:01;45.55;;;16.50;;
43710;SDS011;29309;42.682;23.372;2023-02-17T00:29:27;39.42;;;16.83;;
43710;SDS011;29309;42.682;23.372;2023-02-17T00:31:52;42.85;;;15.68;;
43710;SDS011;29309;42.682;23.372;2023-02-17T00:34:18;43.80;;;17.55;;
43710;SDS011;29309;42.682;23.372;2023-02-17T00:36:44;42.72;;;16.08;;
43710;SDS011;29309;42.682;23.372;2023-02-17T00:39:11;36.22;;;15.57;;
43710;SDS011;29309;42.682;23.372;2023-02-17T00:41:38;32.20;;;15.40;;
43710;SDS011;29309;42.682;23.372;2023-02-17T00:44:04;36.65;;;16.05;;
43710;SDS011;29309;42.682;23.372;2023-02-17T00:46:29;34.72;;;16.23;;
43710;SDS011;29309;42.682;23.372;2023-02-17T00:48:55;44.00;;;15.73;;
43710;SDS011;29309;42.682;23.372;2023-02-17T00:51:21;41.80;;;19.02;;
43710;SDS011;29309;42.682;23.372;2023-02-17T00:53:47;57.65;;;24.35;;
43710;SDS011;29309;42.682;23.372;2023-02-17T00:56:12;101.15;;;41.88;;
43710;SDS011;29309;42.682;23.372;2023-02-17T00:58:38;154.55;;;58.47;;
43710;SDS011;29309;42.682;23.372;2023-02-17T01:01:06;148.60;;;59.28;;
43710;SDS011;29309;42.682;23.372;2023-02-17T01:03:33;170.48;;;67.45;;
43710;SDS011;29309;42.682;23.372;2023-02-17T01:05:58;180.00;;;68.97;;
43710;SDS011;29309;42.682;23.372;2023-02-17T01:08:23;177.60;;;70.82;;
43710;SDS011;29309;42.682;23.372;2023-02-17T01:10:50;215.45;;;82.55;;
43710;SDS011;29309;42.682;23.372;2023-02-17T01:13:16;223.18;;;84.28;;
43710;SDS011;29309;42.682;23.372;2023-02-17T01:15:47;170.68;;;66.93;;
43710;SDS011;29309;42.682;23.372;2023-02-17T01:18:14;167.93;;;68.13;;
43710;SDS011;29309;42.682;23.372;2023-02-17T01:20:40;145.90;;;59.28;;
43710;SDS011;29309;42.682;23.372;2023-02-17T01:23:06;138.70;;;54.42;;
43710;SDS011;29309;42.682;23.372;2023-02-17T01:25:36;143.65;;;56.42;;
43710;SDS011;29309;42.682;23.372;2023-02-17T01:28:07;136.93;;;51.40;;
43710;SDS011;29309;42.682;23.372;2023-02-17T01:30:33;152.75;;;62.85;;
43710;SDS011;29309;42.682;23.372;2023-02-17T01:32:59;130.15;;;52.92;;
43710;SDS011;29309;42.682;23.372;2023-02-17T01:35:25;172.93;;;64.82;;
43710;SDS011;29309;42.682;23.372;2023-02-17T01:37:50;183.32;;;68.45;;
43710;SDS011;29309;42.682;23.372;2023-02-17T01:40:16;172.52;;;65.18;;
43710;SDS011;29309;42.682;23.372;2023-02-17T01:42:42;146.57;;;56.78;;
43710;SDS011;29309;42.682;23.372;2023-02-17T01:47:43;128.63;;;49.92;;
43710;SDS011;29309;42.682;23.372;2023-02-17T01:50:09;129.45;;;47.38;;
43710;SDS011;29309;42.682;23.372;2023-02-17T01:52:35;118.82;;;42.78;;
43710;SDS011;29309;42.682;23.372;2023-02-17T01:55:04;113.47;;;41.72;;
43710;SDS011;29309;42.682;23.372;2023-02-17T01:57:34;111.85;;;42.63;;
43710;SDS011;29309;42.682;23.372;2023-02-17T02:00:03;116.90;;;42.45;;
43710;SDS011;29309;42.682;23.372;2023-02-17T02:02:31;109.07;;;41.15;;
43710;SDS011;29309;42.682;23.372;2023-02-17T02:04:57;104.80;;;41.53;;
43710;SDS011;29309;42.682;23.372;2023-02-17T02:07:27;109.80;;;37.60;;
43710;SDS011;29309;42.682;23.372;2023-02-17T02:09:57;101.47;;;37.70;;
43710;SDS011;29309;42.682;23.372;2023-02-17T02:12:28;90.53;;;30.77;;
43710;SDS011;29309;42.682;23.372;2023-02-17T02:15:00;92.45;;;33.47;;
43710;SDS011;29309;42.682;23.372;2023-02-17T02:17:34;75.97;;;30.75;;
43710;SDS011;29309;42.682;23.372;2023-02-17T02:28:26;85.30;;;33.22;;
43710;SDS011;29309;42.682;23.372;2023-02-17T02:34:15;96.43;;;34.83;;
43710;SDS011;29309;42.682;23.372;2023-02-17T02:36:49;90.22;;;36.95;;
43710;SDS011;29309;42.682;23.372;2023-02-17T02:39:19;85.63;;;34.22;;
43710;SDS011;29309;42.682;23.372;2023-02-17T02:41:52;92.22;;;37.65;;
43710;SDS011;29309;42.682;23.372;2023-02-17T02:44:21;91.68;;;35.30;;
43710;SDS011;29309;42.682;23.372;2023-02-17T02:49:26;86.22;;;34.00;;
43710;SDS011;29309;42.682;23.372;2023-02-17T02:51:54;90.25;;;35.85;;
43710;SDS011;29309;42.682;23.372;2023-02-17T02:57:14;90.50;;;34.00;;
43710;SDS011;29309;42.682;23.372;2023-02-17T03:10:30;78.57;;;31.67;;
43710;SDS011;29309;42.682;23.372;2023-02-17T03:12:56;82.15;;;31.48;;
43710;SDS011;29309;42.682;23.372;2023-02-17T03:15:27;68.07;;;26.23;;
43710;SDS011;29309;42.682;23.372;2023-02-17T03:17:57;66.68;;;27.35;;
43710;SDS011;29309;42.682;23.372;2023-02-17T03:20:24;82.47;;;32.00;;
43710;SDS011;29309;42.682;23.372;2023-02-17T03:22:54;68.18;;;27.92;;
43710;SDS011;29309;42.682;23.372;2023-02-17T03:25:20;65.35;;;25.67;;
43710;SDS011;29309;42.682;23.372;2023-02-17T03:27:46;75.72;;;26.80;;
43710;SDS011;29309;42.682;23.372;2023-02-17T03:30:11;63.50;;;26.25;;
43710;SDS011;29309;42.682;23.372;2023-02-17T03:32:37;70.57;;;27.52;;
43710;SDS011;29309;42.682;23.372;2023-02-17T03:35:02;65.38;;;27.48;;
43710;SDS011;29309;42.682;23.372;2023-02-17T03:37:28;65.03;;;27.40;;
43710;SDS011;29309;42.682;23.372;2023-02-17T03:39:54;56.63;;;24.30;;
43710;SDS011;29309;42.682;23.372;2023-02-17T03:42:19;59.30;;;24.35;;
43710;SDS011;29309;42.682;23.372;2023-02-17T03:44:45;54.60;;;23.85;;
43710;SDS011;29309;42.682;23.372;2023-02-17T03:47:10;53.55;;;22.98;;
43710;SDS011;29309;42.682;23.372;2023-02-17T03:49:36;61.10;;;26.40;;
43710;SDS011;29309;42.682;23.372;2023-02-17T03:52:01;57.60;;;25.98;;
43710;SDS011;29309;42.682;23.372;2023-02-17T03:54:27;67.65;;;26.75;;
43710;SDS011;29309;42.682;23.372;2023-02-17T03:56:52;73.78;;;28.58;;
43710;SDS011;29309;42.682;23.372;2023-02-17T03:59:18;73.10;;;29.02;;
43710;SDS011;29309;42.682;23.372;2023-02-17T04:01:43;70.22;;;27.90;;
43710;SDS011;29309;42.682;23.372;2023-02-17T04:04:09;56.22;;;24.70;;
43710;SDS011;29309;42.682;23.372;2023-02-17T04:06:34;73.97;;;26.75;;
43710;SDS011;29309;42.682;23.372;2023-02-17T04:09:00;69.80;;;28.13;;
43710;SDS011;29309;42.682;23.372;2023-02-17T04:11:25;80.13;;;28.60;;
43710;SDS011;29309;42.682;23.372;2023-02-17T04:13:51;63.60;;;26.58;;
43710;SDS011;29309;42.682;23.372;2023-02-17T04:16:16;53.35;;;20.60;;
43710;SDS011;29309;42.682;23.372;2023-02-17T04:18:42;50.13;;;20.98;;
43710;SDS011;29309;42.682;23.372;2023-02-17T04:21:07;49.30;;;20.88;;
43710;SDS011;29309;42.682;23.372;2023-02-17T04:23:34;62.72;;;27.02;;
43710;SDS011;29309;42.682;23.372;2023-02-17T04:26:00;46.33;;;20.50;;
43710;SDS011;29309;42.682;23.372;2023-02-17T04:28:26;47.78;;;19.02;;
43710;SDS011;29309;42.682;23.372;2023-02-17T04:30:52;38.28;;;16.70;;
43710;SDS011;29309;42.682;23.372;2023-02-17T04:33:17;36.92;;;15.55;;
43710;SDS011;29309;42.682;23.372;2023-02-17T04:35:43;36.42;;;15.73;;
43710;SDS011;29309;42.682;23.372;2023-02-17T04:38:09;45.33;;;17.58;;
43710;SDS011;29309;42.682;23.372;2023-02-17T04:40:36;43.13;;;18.98;;
43710;SDS011;29309;42.682;23.372;2023-02-17T04:43:02;43.25;;;16.60;;
43710;SDS011;29309;42.682;23.372;2023-02-17T04:45:27;36.97;;;15.18;;
43710;SDS011;29309;42.682;23.372;2023-02-17T04:47:53;34.40;;;14.50;;
43710;SDS011;29309;42.682;23.372;2023-02-17T04:50:19;31.35;;;14.73;;
43710;SDS011;29309;42.682;23.372;2023-02-17T04:52:44;31.33;;;12.48;;
43710;SDS011;29309;42.682;23.372;2023-02-17T04:55:10;25.85;;;11.82;;
43710;SDS011;29309;42.682;23.372;2023-02-17T04:57:35;34.58;;;13.40;;
43710;SDS011;29309;42.682;23.372;2023-02-17T05:00:01;34.58;;;16.02;;
43710;SDS011;29309;42.682;23.372;2023-02-17T05:02:28;48.53;;;21.75;;
43710;SDS011;29309;42.682;23.372;2023-02-17T05:04:54;47.40;;;22.70;;
43710;SDS011;29309;42.682;23.372;2023-02-17T05:07:20;52.72;;;23.48;;
43710;SDS011;29309;42.682;23.372;2023-02-17T05:09:45;42.63;;;19.90;;
43710;SDS011;29309;42.682;23.372;2023-02-17T05:12:11;49.50;;;20.48;;
43710;SDS011;29309;42.682;23.372;2023-02-17T05:14:37;38.00;;;17.67;;
43710;SDS011;29309;42.682;23.372;2023-02-17T05:17:02;38.72;;;15.80;;
43710;SDS011;29309;42.682;23.372;2023-02-17T05:19:28;32.40;;;15.52;;
43710;SDS011;29309;42.682;23.372;2023-02-17T05:21:53;31.80;;;15.13;;
43710;SDS011;29309;42.682;23.372;2023-02-17T05:24:19;34.78;;;14.18;;
43710;SDS011;29309;42.682;23.372;2023-02-17T05:26:44;34.90;;;14.65;;
43710;SDS011;29309;42.682;23.372;2023-02-17T05:29:10;37.45;;;14.27;;
43710;SDS011;29309;42.682;23.372;2023-02-17T05:31:35;31.20;;;13.50;;
43710;SDS011;29309;42.682;23.372;2023-02-17T05:34:01;37.13;;;13.60;;
43710;SDS011;29309;42.682;23.372;2023-02-17T05:36:26;37.58;;;13.95;;
43710;SDS011;29309;42.682;23.372;2023-02-17T05:38:52;33.15;;;15.70;;
43710;SDS011;29309;42.682;23.372;2023-02-17T05:41:17;32.58;;;13.93;;
43710;SDS011;29309;42.682;23.372;2023-02-17T05:43:44;34.78;;;13.45;;
43710;SDS011;29309;42.682;23.372;2023-02-17T05:46:10;35.03;;;14.30;;
43710;SDS011;29309;42.682;23.372;2023-02-17T05:48:36;34.08;;;14.60;;
43710;SDS011;29309;42.682;23.372;2023-02-17T05:51:01;37.38;;;14.52;;
43710;SDS011;29309;42.682;23.372;2023-02-17T05:53:27;29.73;;;13.65;;
43710;SDS011;29309;42.682;23.372;2023-02-17T05:55:52;28.60;;;13.07;;
43710;SDS011;29309;42.682;23.372;2023-02-17T05:58:18;35.90;;;13.48;;
43710;SDS011;29309;42.682;23.372;2023-02-17T06:00:43;29.30;;;12.63;;
43710;SDS011;29309;42.682;23.372;2023-02-17T06:03:10;34.20;;;13.10;;
43710;SDS011;29309;42.682;23.372;2023-02-17T06:05:36;33.00;;;13.07;;
43710;SDS011;29309;42.682;23.372;2023-02-17T06:08:01;34.30;;;12.68;;
43710;SDS011;29309;42.682;23.372;2023-02-17T06:10:27;34.85;;;14.77;;
43710;SDS011;29309;42.682;23.372;2023-02-17T06:12:53;31.00;;;13.95;;
43710;SDS011;29309;42.682;23.372;2023-02-17T06:15:18;29.58;;;14.30;;
43710;SDS011;29309;42.682;23.372;2023-02-17T06:17:43;33.35;;;15.18;;
43710;SDS011;29309;42.682;23.372;2023-02-17T06:20:09;36.38;;;14.80;;
43710;SDS011;29309;42.682;23.372;2023-02-17T06:22:35;34.55;;;15.18;;
43710;SDS011;29309;42.682;23.372;2023-02-17T06:25:00;38.90;;;16.75;;
43710;SDS011;29309;42.682;23.372;2023-02-17T06:27:26;38.47;;;16.48;;
43710;SDS011;29309;42.682;23.372;2023-02-17T06:29:51;28.70;;;14.70;;
43710;SDS011;29309;42.682;23.372;2023-02-17T06:32:17;40.47;;;16.30;;
43710;SDS011;29309;42.682;23.372;2023-02-17T06:34:42;35.28;;;16.23;;
43710;SDS011;29309;42.682;23.372;2023-02-17T06:37:08;36.80;;;16.63;;
43710;SDS011;29309;42.682;23.372;2023-02-17T06:39:33;40.15;;;16.27;;
43710;SDS011;29309;42.682;23.372;2023-02-17T06:41:59;33.35;;;16.02;;
43710;SDS011;29309;42.682;23.372;2023-02-17T06:44:24;37.42;;;16.75;;
43710;SDS011;29309;42.682;23.372;2023-02-17T06:46:50;36.30;;;16.58;;
43710;SDS011;29309;42.682;23.372;2023-02-17T06:49:15;31.75;;;16.42;;
43710;SDS011;29309;42.682;23.372;2023-02-17T06:51:41;38.35;;;18.25;;
43710;SDS011;29309;42.682;23.372;2023-02-17T06:54:06;53.05;;;22.30;;
43710;SDS011;29309;42.682;23.372;2023-02-17T06:56:32;54.97;;;28.98;;
43710;SDS011;29309;42.682;23.372;2023-02-17T06:58:57;64.93;;;30.33;;
43710;SDS011;29309;42.682;23.372;2023-02-17T07:01:23;71.75;;;27.35;;
43710;SDS011;29309;42.682;23.372;2023-02-17T07:03:50;69.75;;;31.20;;
43710;SDS011;29309;42.682;23.372;2023-02-17T07:06:17;73.07;;;35.13;;
43710;SDS011;29309;42.682;23.372;2023-02-17T07:08:43;67.28;;;34.75;;
43710;SDS011;29309;42.682;23.372;2023-02-17T07:11:09;81.78;;;39.40;;
43710;SDS011;29309;42.682;23.372;2023-02-17T07:13:37;97.20;;;45.70;;
43710;SDS011;29309;42.682;23.372;2023-02-17T07:16:02;63.65;;;29.17;;
43710;SDS011;29309;42.682;23.372;2023-02-17T07:18:28;61.10;;;28.90;;
43710;SDS011;29309;42.682;23.372;2023-02-17T07:20:54;52.10;;;24.40;;
43710;SDS011;29309;42.682;23.372;2023-02-17T07:23:20;42.25;;;22.42;;
43710;SDS011;29309;42.682;23.372;2023-02-17T07:25:45;50.28;;;21.95;;
43710;SDS011;29309;42.682;23.372;2023-02-17T07:28:10;45.70;;;22.60;;
43710;SDS011;29309;42.682;23.372;2023-02-17T07:30:39;48.55;;;24.35;;
43710;SDS011;29309;42.682;23.372;2023-02-17T07:33:06;45.30;;;21.15;;
43710;SDS011;29309;42.682;23.372;2023-02-17T07:35:32;44.88;;;20.83;;
43710;SDS011;29309;42.682;23.372;2023-02-17T07:37:59;39.70;;;20.35;;
43710;SDS011;29309;42.682;23.372;2023-02-17T07:40:25;39.67;;;20.42;;
43710;SDS011;29309;42.682;23.372;2023-02-17T07:42:51;41.67;;;20.00;;
43710;SDS011;29309;42.682;23.372;2023-02-17T07:45:17;44.38;;;20.15;;
43710;SDS011;29309;42.682;23.372;2023-02-17T07:47:43;42.97;;;22.90;;
43710;SDS011;29309;42.682;23.372;2023-02-17T07:50:09;49.70;;;20.98;;
43710;SDS011;29309;42.682;23.372;2023-02-17T07:52:34;45.33;;;20.80;;
43710;SDS011;29309;42.682;23.372;2023-02-17T07:55:00;44.92;;;22.40;;
43710;SDS011;29309;42.682;23.372;2023-02-17T07:57:25;40.13;;;20.13;;
43710;SDS011;29309;42.682;23.372;2023-02-17T07:59:51;45.75;;;21.08;;
43710;SDS011;29309;42.682;23.372;2023-02-17T08:02:16;46.72;;;23.98;;
43710;SDS011;29309;42.682;23.372;2023-02-17T08:04:42;42.78;;;23.05;;
43710;SDS011;29309;42.682;23.372;2023-02-17T08:07:08;57.90;;;24.85;;
43710;SDS011;29309;42.682;23.372;2023-02-17T08:09:33;47.33;;;24.58;;
43710;SDS011;29309;42.682;23.372;2023-02-17T08:12:18;58.70;;;26.17;;
43710;SDS011;29309;42.682;23.372;2023-02-17T08:15:03;46.45;;;25.65;;
43710;SDS011;29309;42.682;23.372;2023-02-17T08:17:31;46.40;;;25.02;;
43710;SDS011;29309;42.682;23.372;2023-02-17T08:19:56;57.03;;;25.63;;
43710;SDS011;29309;42.682;23.372;2023-02-17T08:22:22;48.08;;;23.83;;
43710;SDS011;29309;42.682;23.372;2023-02-17T08:24:47;48.00;;;26.17;;
43710;SDS011;29309;42.682;23.372;2023-02-17T08:27:13;45.88;;;24.23;;
43710;SDS011;29309;42.682;23.372;2023-02-17T08:29:39;51.38;;;25.70;;
43710;SDS011;29309;42.682;23.372;2023-02-17T08:32:05;53.35;;;25.50;;
43710;SDS011;29309;42.682;23.372;2023-02-17T08:34:31;51.83;;;25.65;;
43710;SDS011;29309;42.682;23.372;2023-02-17T08:36:58;55.97;;;27.52;;
43710;SDS011;29309;42.682;23.372;2023-02-17T08:39:24;56.47;;;26.30;;
43710;SDS011;29309;42.682;23.372;2023-02-17T08:41:51;66.18;;;27.23;;
43710;SDS011;29309;42.682;23.372;2023-02-17T08:44:18;49.90;;;25.45;;
43710;SDS011;29309;42.682;23.372;2023-02-17T08:46:45;55.38;;;26.90;;
43710;SDS011;29309;42.682;23.372;2023-02-17T08:49:12;55.45;;;25.40;;
43710;SDS011;29309;42.682;23.372;2023-02-17T08:51:39;54.60;;;23.65;;
43710;SDS011;29309;42.682;23.372;2023-02-17T08:54:05;51.17;;;22.85;;
43710;SDS011;29309;42.682;23.372;2023-02-17T08:56:33;50.55;;;25.75;;
43710;SDS011;29309;42.682;23.372;2023-02-17T08:59:00;47.80;;;24.73;;
43710;SDS011;29309;42.682;23.372;2023-02-17T09:01:26;52.30;;;24.95;;
43710;SDS011;29309;42.682;23.372;2023-02-17T09:03:52;48.13;;;25.55;;
43710;SDS011;29309;42.682;23.372;2023-02-17T09:06:20;54.22;;;25.75;;
43710;SDS011;29309;42.682;23.372;2023-02-17T09:08:45;60.42;;;26.63;;
43710;SDS011;29309;42.682;23.372;2023-02-17T09:11:11;49.92;;;25.15;;
43710;SDS011;29309;42.682;23.372;2023-02-17T09:13:39;51.95;;;25.25;;
43710;SDS011;29309;42.682;23.372;2023-02-17T09:16:05;51.30;;;24.58;;
43710;SDS011;29309;42.682;23.372;2023-02-17T09:18:31;52.22;;;24.08;;
43710;SDS011;29309;42.682;23.372;2023-02-17T09:20:56;49.97;;;24.70;;
43710;SDS011;29309;42.682;23.372;2023-02-17T09:23:24;47.70;;;23.63;;
43710;SDS011;29309;42.682;23.372;2023-02-17T09:25:59;50.15;;;22.48;;
43710;SDS011;29309;42.682;23.372;2023-02-17T09:28:29;48.95;;;23.05;;
43710;SDS011;29309;42.682;23.372;2023-02-17T09:30:54;43.42;;;23.60;;
43710;SDS011;29309;42.682;23.372;2023-02-17T09:33:20;48.28;;;23.02;;
43710;SDS011;29309;42.682;23.372;2023-02-17T09:35:45;49.63;;;23.33;;
43710;SDS011;29309;42.682;23.372;2023-02-17T09:38:11;46.55;;;21.23;;
43710;SDS011;29309;42.682;23.372;2023-02-17T09:40:40;39.45;;;21.08;;
43710;SDS011;29309;42.682;23.372;2023-02-17T09:43:12;47.42;;;22.25;;
43710;SDS011;29309;42.682;23.372;2023-02-17T09:45:41;68.57;;;23.20;;
43710;SDS011;29309;42.682;23.372;2023-02-17T09:48:12;40.28;;;20.48;;
43710;SDS011;29309;42.682;23.372;2023-02-17T09:50:55;30.75;;;10.32;;
43710;SDS011;29309;42.682;23.372;2023-02-17T09:53:57;28.65;;;12.90;;
43710;SDS011;29309;42.682;23.372;2023-02-17T09:56:32;27.05;;;8.57;;
43710;SDS011;29309;42.682;23.372;2023-02-17T09:59:10;15.93;;;4.72;;
43710;SDS011;29309;42.682;23.372;2023-02-17T10:01:52;13.70;;;4.85;;
43710;SDS011;29309;42.682;23.372;2023-02-17T10:04:22;10.38;;;5.20;;
43710;SDS011;29309;42.682;23.372;2023-02-17T10:06:59;11.35;;;6.80;;
43710;SDS011;29309;42.682;23.372;2023-02-17T10:09:32;14.23;;;6.82;;
43710;SDS011;29309;42.682;23.372;2023-02-17T10:12:05;10.33;;;5.43;;
43710;SDS011;29309;42.682;23.372;2023-02-17T10:14:42;13.23;;;4.70;;
43710;SDS011;29309;42.682;23.372;2023-02-17T10:22:29;9.88;;;5.28;;
43710;SDS011;29309;42.682;23.372;2023-02-17T10:24:56;27.63;;;5.90;;
43710;SDS011;29309;42.682;23.372;2023-02-17T10:33:11;7.88;;;4.30;;
43710;SDS011;29309;42.682;23.372;2023-02-17T10:40:53;11.18;;;4.70;;
43710;SDS011;29309;42.682;23.372;2023-02-17T10:43:22;16.23;;;4.88;;
43710;SDS011;29309;42.682;23.372;2023-02-17T10:45:51;12.85;;;4.60;;
43710;SDS011;29309;42.682;23.372;2023-02-17T10:48:25;9.68;;;4.60;;
43710;SDS011;29309;42.682;23.372;2023-02-17T10:50:58;9.13;;;3.92;;
43710;SDS011;29309;42.682;23.372;2023-02-17T10:53:27;6.60;;;4.10;;
43710;SDS011;29309;42.682;23.372;2023-02-17T10:58:50;9.98;;;4.72;;
43710;SDS011;29309;42.682;23.372;2023-02-17T11:01:19;11.85;;;4.00;;
43710;SDS011;29309;42.682;23.372;2023-02-17T11:03:57;15.25;;;4.20;;
43710;SDS011;29309;42.682;23.372;2023-02-17T11:06:41;8.48;;;4.68;;
43710;SDS011;29309;42.682;23.372;2023-02-17T11:09:19;15.55;;;5.35;;
43710;SDS011;29309;42.682;23.372;2023-02-17T11:11:57;11.85;;;4.68;;
43710;SDS011;29309;42.682;23.372;2023-02-17T11:14:26;12.52;;;4.65;;
43710;SDS011;29309;42.682;23.372;2023-02-17T11:16:58;8.57;;;4.68;;
43710;SDS011;29309;42.682;23.372;2023-02-17T11:21:53;10.63;;;4.63;;
43710;SDS011;29309;42.682;23.372;2023-02-17T11:24:20;14.73;;;4.50;;
43710;SDS011;29309;42.682;23.372;2023-02-17T11:26:57;24.90;;;3.50;;
43710;SDS011;29309;42.682;23.372;2023-02-17T11:29:24;11.55;;;3.55;;
43710;SDS011;29309;42.682;23.372;2023-02-17T11:32:04;28.98;;;5.30;;
43710;SDS011;29309;42.682;23.372;2023-02-17T11:34:38;7.30;;;3.65;;
43710;SDS011;29309;42.682;23.372;2023-02-17T11:39:38;10.85;;;4.00;;
43710;SDS011;29309;42.682;23.372;2023-02-17T11:44:47;22.02;;;3.90;;
43710;SDS011;29309;42.682;23.372;2023-02-17T11:53:25;10.07;;;4.35;;
43710;SDS011;29309;42.682;23.372;2023-02-17T11:55:29;13.88;;;4.28;;
43710;SDS011;29309;42.682;23.372;2023-02-17T12:00:39;9.02;;;4.72;;
43710;SDS011;29309;42.682;23.372;2023-02-17T12:03:31;11.85;;;4.82;;
43710;SDS011;29309;42.682;23.372;2023-02-17T12:08:35;8.27;;;4.22;;
43710;SDS011;29309;42.682;23.372;2023-02-17T12:20:24;8.50;;;3.53;;
43710;SDS011;29309;42.682;23.372;2023-02-17T12:25:32;9.23;;;4.43;;
43710;SDS011;29309;42.682;23.372;2023-02-17T12:30:54;25.30;;;4.13;;
43710;SDS011;29309;42.682;23.372;2023-02-17T12:36:21;9.35;;;4.97;;
43710;SDS011;29309;42.682;23.372;2023-02-17T12:39:40;10.00;;;4.32;;
43710;SDS011;29309;42.682;23.372;2023-02-17T12:41:48;20.13;;;5.28;;
43710;SDS011;29309;42.682;23.372;2023-02-17T12:44:21;9.95;;;5.05;;
43710;SDS011;29309;42.682;23.372;2023-02-17T12:46:51;7.30;;;3.25;;
43710;SDS011;29309;42.682;23.372;2023-02-17T12:49:33;9.95;;;4.13;;
43710;SDS011;29309;42.682;23.372;2023-02-17T12:52:35;12.82;;;4.13;;
43710;SDS011;29309;42.682;23.372;2023-02-17T12:57:48;11.10;;;3.85;;
43710;SDS011;29309;42.682;23.372;2023-02-17T13:03:06;9.05;;;4.57;;
43710;SDS011;29309;42.682;23.372;2023-02-17T13:05:39;13.38;;;4.60;;
43710;SDS011;29309;42.682;23.372;2023-02-17T13:08:28;14.20;;;4.22;;
43710;SDS011;29309;42.682;23.372;2023-02-17T13:11:04;8.93;;;3.97;;
43710;SDS011;29309;42.682;23.372;2023-02-17T13:13:32;6.40;;;3.58;;
43710;SDS011;29309;42.682;23.372;2023-02-17T13:18:38;9.57;;;3.17;;
43710;SDS011;29309;42.682;23.372;2023-02-17T13:26:41;12.40;;;4.28;;
43710;SDS011;29309;42.682;23.372;2023-02-17T13:29:18;7.97;;;3.88;;
43710;SDS011;29309;42.682;23.372;2023-02-17T13:31:53;12.65;;;3.38;;
43710;SDS011;29309;42.682;23.372;2023-02-17T13:34:38;13.50;;;3.50;;
43710;SDS011;29309;42.682;23.372;2023-02-17T13:37:23;8.18;;;4.10;;
43710;SDS011;29309;42.682;23.372;2023-02-17T13:40:07;6.57;;;2.75;;
43710;SDS011;29309;42.682;23.372;2023-02-17T13:42:54;5.50;;;3.10;;
43710;SDS011;29309;42.682;23.372;2023-02-17T13:47:53;12.80;;;4.25;;
43710;SDS011;29309;42.682;23.372;2023-02-17T13:50:28;8.77;;;3.40;;
43710;SDS011;29309;42.682;23.372;2023-02-17T13:53:02;6.88;;;3.85;;
43710;SDS011;29309;42.682;23.372;2023-02-17T13:55:45;8.38;;;3.78;;
43710;SDS011;29309;42.682;23.372;2023-02-17T13:58:10;13.27;;;4.20;;
43710;SDS011;29309;42.682;23.372;2023-02-17T14:00:35;10.25;;;3.42;;
43710;SDS011;29309;42.682;23.372;2023-02-17T14:03:05;13.38;;;3.50;;
43710;SDS011;29309;42.682;23.372;2023-02-17T14:05:42;11.35;;;3.55;;
43710;SDS011;29309;42.682;23.372;2023-02-17T14:08:13;15.43;;;3.88;;
43710;SDS011;29309;42.682;23.372;2023-02-17T14:10:44;13.73;;;3.40;;
43710;SDS011;29309;42.682;23.372;2023-02-17T14:13:10;13.80;;;3.88;;
43710;SDS011;29309;42.682;23.372;2023-02-17T14:15:37;9.73;;;3.47;;
43710;SDS011;29309;42.682;23.372;2023-02-17T14:18:15;11.55;;;3.78;;
43710;SDS011;29309;42.682;23.372;2023-02-17T14:20:58;6.15;;;3.65;;
43710;SDS011;29309;42.682;23.372;2023-02-17T14:23:24;7.93;;;3.67;;
43710;SDS011;29309;42.682;23.372;2023-02-17T14:25:50;8.10;;;4.05;;
43710;SDS011;29309;42.682;23.372;2023-02-17T14:28:24;7.03;;;4.10;;
43710;SDS011;29309;42.682;23.372;2023-02-17T14:30:51;10.68;;;5.60;;
43710;SDS011;29309;42.682;23.372;2023-02-17T14:33:24;9.35;;;4.22;;
43710;SDS011;29309;42.682;23.372;2023-02-17T14:35:54;9.77;;;4.10;;
43710;SDS011;29309;42.682;23.372;2023-02-17T14:40:48;9.95;;;5.35;;
43710;SDS011;29309;42.682;23.372;2023-02-17T14:43:14;13.50;;;4.78;;
43710;SDS011;29309;42.682;23.372;2023-02-17T14:45:39;12.75;;;6.53;;
43710;SDS011;29309;42.682;23.372;2023-02-17T14:48:05;15.38;;;6.25;;
43710;SDS011;29309;42.682;23.372;2023-02-17T14:50:34;12.20;;;5.30;;
43710;SDS011;29309;42.682;23.372;2023-02-17T14:53:08;9.23;;;4.03;;
43710;SDS011;29309;42.682;23.372;2023-02-17T14:55:49;13.32;;;5.13;;
43710;SDS011;29309;42.682;23.372;2023-02-17T14:58:21;9.73;;;6.18;;
43710;SDS011;29309;42.682;23.372;2023-02-17T15:00:48;11.57;;;6.13;;
43710;SDS011;29309;42.682;23.372;2023-02-17T15:03:14;12.50;;;5.32;;
43710;SDS011;29309;42.682;23.372;2023-02-17T15:05:40;14.30;;;6.40;;
43710;SDS011;29309;42.682;23.372;2023-02-17T15:08:08;11.77;;;5.70;;
43710;SDS011;29309;42.682;23.372;2023-02-17T15:10:39;8.23;;;5.10;;
43710;SDS011;29309;42.682;23.372;2023-02-17T15:13:05;22.42;;;6.40;;
43710;SDS011;29309;42.682;23.372;2023-02-17T15:15:30;13.20;;;4.93;;
43710;SDS011;29309;42.682;23.372;2023-02-17T15:17:56;9.32;;;5.53;;
43710;SDS011;29309;42.682;23.372;2023-02-17T15:20:22;10.50;;;5.15;;
43710;SDS011;29309;42.682;23.372;2023-02-17T15:22:48;9.40;;;5.20;;
43710;SDS011;29309;42.682;23.372;2023-02-17T15:25:17;7.00;;;4.82;;
43710;SDS011;29309;42.682;23.372;2023-02-17T15:27:46;7.93;;;4.53;;
43710;SDS011;29309;42.682;23.372;2023-02-17T15:30:14;15.52;;;5.32;;
43710;SDS011;29309;42.682;23.372;2023-02-17T15:32:41;14.18;;;5.50;;
43710;SDS011;29309;42.682;23.372;2023-02-17T15:37:47;13.02;;;5.60;;
43710;SDS011;29309;42.682;23.372;2023-02-17T15:40:14;13.15;;;6.70;;
43710;SDS011;29309;42.682;23.372;2023-02-17T15:42:41;19.17;;;6.43;;
43710;SDS011;29309;42.682;23.372;2023-02-17T15:45:12;10.02;;;5.80;;
43710;SDS011;29309;42.682;23.372;2023-02-17T15:47:40;12.30;;;6.50;;
43710;SDS011;29309;42.682;23.372;2023-02-17T15:50:15;20.10;;;7.90;;
43710;SDS011;29309;42.682;23.372;2023-02-17T15:52:44;19.58;;;7.80;;
43710;SDS011;29309;42.682;23.372;2023-02-17T15:55:10;14.65;;;6.90;;
43710;SDS011;29309;42.682;23.372;2023-02-17T15:57:36;18.13;;;6.85;;
43710;SDS011;29309;42.682;23.372;2023-02-17T16:00:38;13.23;;;6.57;;
43710;SDS011;29309;42.682;23.372;2023-02-17T16:02:58;16.73;;;6.82;;
43710;SDS011;29309;42.682;23.372;2023-02-17T16:05:24;16.95;;;6.75;;
43710;SDS011;29309;42.682;23.372;2023-02-17T16:07:51;16.98;;;6.70;;